createdAt,value
2022-09-11T00:01:33.256Z,51.90
2022-09-11T00:04:02.575Z,53.30
2022-09-11T00:06:30.968Z,58.80
2022-09-11T00:09:01.545Z,56.60
2022-09-11T00:11:31.461Z,57.50
2022-09-11T00:14:01.800Z,57.70
2022-09-11T00:16:33.857Z,55.30
2022-09-11T00:19:03.933Z,56.00
2022-09-11T00:21:32.249Z,55.20
2022-09-11T00:24:00.604Z,58.00
2022-09-11T00:26:28.991Z,58.90
2022-09-11T00:28:57.504Z,58.00
2022-09-11T00:31:28.439Z,60.40
2022-09-11T00:33:56.762Z,58.00
2022-09-11T00:36:26.333Z,63.10
2022-09-11T00:38:54.471Z,63.80
2022-09-11T00:41:25.888Z,70.60
2022-09-11T00:44:00.571Z,62.30
2022-09-11T00:46:36.197Z,60.10
2022-09-11T00:49:15.909Z,64.60
2022-09-11T00:51:47.940Z,60.90
2022-09-11T00:54:21.024Z,67.00
2022-09-11T00:56:50.282Z,62.80
2022-09-11T00:59:21.342Z,64.80
2022-09-11T01:01:50.710Z,63.00
2022-09-11T01:04:18.925Z,66.60
2022-09-11T01:06:49.210Z,71.90
2022-09-11T01:09:17.546Z,69.80
2022-09-11T01:11:53.437Z,70.60
2022-09-11T01:14:37.424Z,73.10
2022-09-11T01:17:19.345Z,77.50
2022-09-11T01:20:14.392Z,79.50
2022-09-11T01:23:09.026Z,77.50
2022-09-11T01:25:56.823Z,77.70
2022-09-11T01:28:33.663Z,74.70
2022-09-11T01:31:08.938Z,74.40
2022-09-11T01:33:44.769Z,77.60
2022-09-11T01:36:19.142Z,80.90
2022-09-11T01:38:51.113Z,77.40
2022-09-11T01:41:23.936Z,74.50
2022-09-11T01:43:57.877Z,75.20
2022-09-11T01:46:29.213Z,74.30
2022-09-11T01:49:04.168Z,77.50
2022-09-11T01:51:36.190Z,77.80
2022-09-11T01:54:08.182Z,82.50
2022-09-11T01:56:40.852Z,85.90
2022-09-11T01:59:14.443Z,89.30
2022-09-11T02:01:51.140Z,90.60
2022-09-11T02:04:23.072Z,91.30
2022-09-11T02:06:56.041Z,88.80
2022-09-11T02:09:27.210Z,86.80
2022-09-11T02:11:58.161Z,89.60
2022-09-11T02:14:32.188Z,90.70
2022-09-11T02:17:08.843Z,86.80
2022-09-11T02:19:36.896Z,85.80
2022-09-11T02:22:06.135Z,85.50
2022-09-11T02:24:34.568Z,82.70
2022-09-11T02:27:06.232Z,84.80
2022-09-11T02:29:36.678Z,86.40
2022-09-11T02:32:04.945Z,86.90
2022-09-11T02:34:35.390Z,82.60
2022-09-11T02:37:18.113Z,84.00
2022-09-11T02:40:04.131Z,84.10
2022-09-11T02:42:42.009Z,85.60
2022-09-11T02:45:24.473Z,81.50
2022-09-11T02:48:03.130Z,79.60
2022-09-11T02:50:38.808Z,79.40
2022-09-11T02:53:11.343Z,82.80
2022-09-11T02:55:53.216Z,80.60
2022-09-11T02:58:26.815Z,83.30
2022-09-11T03:00:59.135Z,78.20
2022-09-11T03:03:27.196Z,75.90
2022-09-11T03:05:55.690Z,75.70
2022-09-11T03:08:23.674Z,78.40
2022-09-11T03:10:51.667Z,83.20
2022-09-11T03:13:19.672Z,83.60
2022-09-11T03:15:48.144Z,84.10
2022-09-11T03:18:17.515Z,88.70
2022-09-11T03:20:46.937Z,90.10
2022-09-11T03:23:15.174Z,90.40
2022-09-11T03:25:43.143Z,90.70
2022-09-11T03:28:11.331Z,90.80
2022-09-11T03:30:41.440Z,91.80
2022-09-11T03:33:09.443Z,91.60
2022-09-11T03:35:38.773Z,91.80
2022-09-11T03:38:06.732Z,92.80
2022-09-11T03:40:34.693Z,94.40
2022-09-11T03:43:02.747Z,94.00
2022-09-11T03:45:30.815Z,94.50
2022-09-11T03:47:58.816Z,94.50
2022-09-11T03:50:27.678Z,94.60
2022-09-11T03:52:57.001Z,94.60
2022-09-11T03:55:25.005Z,96.50
2022-09-11T03:57:53.000Z,95.80
2022-09-11T04:00:21.031Z,96.60
2022-09-11T04:02:49.610Z,96.50
2022-09-11T04:05:17.900Z,96.60
2022-09-11T04:07:45.885Z,96.80
2022-09-11T04:10:15.287Z,96.20
2022-09-11T04:12:44.100Z,96.10
2022-09-11T04:15:12.221Z,96.70
2022-09-11T04:17:40.153Z,97.80
2022-09-11T04:20:09.169Z,97.80
2022-09-11T04:22:37.388Z,98.10
2022-09-11T04:25:06.612Z,97.10
2022-09-11T04:27:36.170Z,97.10
2022-09-11T04:30:04.001Z,98.30
2022-09-11T04:32:32.199Z,98.80
2022-09-11T04:35:01.429Z,98.60
2022-09-11T04:37:29.943Z,98.70
2022-09-11T04:39:57.958Z,98.90
2022-09-11T04:42:26.351Z,99.10
2022-09-11T04:44:55.745Z,98.80
2022-09-11T04:47:23.721Z,99.90
2022-09-11T04:49:52.272Z,99.90
2022-09-11T04:52:20.325Z,99.90
2022-09-11T04:54:48.401Z,99.90
2022-09-11T04:57:16.372Z,99.90
2022-09-11T04:59:44.360Z,99.20
2022-09-11T05:02:13.817Z,99.60
2022-09-11T05:04:41.722Z,98.10
2022-09-11T05:07:13.403Z,99.20
2022-09-11T05:09:41.397Z,99.00
2022-09-11T05:12:10.591Z,99.70
2022-09-11T05:14:38.548Z,98.50
2022-09-11T05:17:06.496Z,99.60
2022-09-11T05:19:35.948Z,99.90
2022-09-11T05:22:04.281Z,99.70
2022-09-11T05:24:32.349Z,98.30
2022-09-11T05:27:00.255Z,98.60
2022-09-11T05:29:32.566Z,98.60
2022-09-11T05:32:01.240Z,97.60
2022-09-11T05:34:29.697Z,97.80
2022-09-11T05:36:59.144Z,98.60
2022-09-11T05:39:27.248Z,98.90
2022-09-11T05:41:55.879Z,98.80
2022-09-11T05:44:23.878Z,98.50
2022-09-11T05:46:52.537Z,98.50
2022-09-11T05:49:21.705Z,98.90
2022-09-11T05:51:49.669Z,98.00
2022-09-11T05:54:19.027Z,99.20
2022-09-11T05:56:47.005Z,97.70
2022-09-11T05:59:15.608Z,96.80
2022-09-11T06:01:43.984Z,97.50
2022-09-11T06:04:12.385Z,96.50
2022-09-11T06:06:40.891Z,95.90
2022-09-11T06:09:08.914Z,96.20
2022-09-11T06:11:38.235Z,94.70
2022-09-11T06:14:06.260Z,95.20
2022-09-11T06:16:35.207Z,96.10
2022-09-11T06:19:04.722Z,95.60
2022-09-11T06:21:32.799Z,93.90
2022-09-11T06:24:00.782Z,90.40
2022-09-11T06:26:29.447Z,91.70
2022-09-11T06:28:58.897Z,88.80
2022-09-11T06:31:27.757Z,82.90
2022-09-11T06:33:55.839Z,91.20
2022-09-11T06:36:26.980Z,85.70
2022-09-11T06:38:56.770Z,81.50
2022-09-11T06:41:26.275Z,85.20
2022-09-11T06:43:54.294Z,85.50
2022-09-11T06:46:25.412Z,77.90
2022-09-11T06:48:54.797Z,80.00
2022-09-11T06:51:23.969Z,74.40
2022-09-11T06:53:56.154Z,76.30
2022-09-11T06:56:24.100Z,75.30
2022-09-11T06:58:52.453Z,75.50
2022-09-11T07:01:21.931Z,75.30
2022-09-11T07:03:53.065Z,73.00
2022-09-11T07:06:22.408Z,70.90
2022-09-11T07:08:53.125Z,64.80
2022-09-11T07:11:21.435Z,61.80
2022-09-11T07:13:49.756Z,58.20
2022-09-11T07:16:17.767Z,60.80
2022-09-11T07:18:47.424Z,58.10
2022-09-11T07:21:18.601Z,61.40
2022-09-11T07:23:49.364Z,66.20
2022-09-11T07:26:18.350Z,64.70
2022-09-11T07:28:48.757Z,61.90
2022-09-11T07:31:21.085Z,63.10
2022-09-11T07:33:50.220Z,62.70
2022-09-11T07:36:23.629Z,66.20
2022-09-11T07:38:52.275Z,70.10
2022-09-11T07:41:22.322Z,74.80
2022-09-11T07:43:54.499Z,75.00
2022-09-11T07:46:24.332Z,77.30
2022-09-11T07:48:52.355Z,82.00
2022-09-11T07:51:21.677Z,79.30
2022-09-11T07:53:51.557Z,87.10
2022-09-11T07:56:23.134Z,85.90
2022-09-11T07:58:52.247Z,80.00
2022-09-11T08:01:24.077Z,87.00
2022-09-11T08:03:56.841Z,78.80
2022-09-11T08:06:27.905Z,71.40
2022-09-11T08:08:57.057Z,69.30
2022-09-11T08:11:26.973Z,69.80
2022-09-11T08:13:56.256Z,61.90
2022-09-11T08:16:26.908Z,65.90
2022-09-11T08:18:55.040Z,69.50
2022-09-11T08:21:23.662Z,70.60
2022-09-11T08:23:53.100Z,72.50
2022-09-11T08:26:22.968Z,71.60
2022-09-11T08:28:52.716Z,66.00
2022-09-11T08:31:22.337Z,71.50
2022-09-11T08:33:50.360Z,59.90
2022-09-11T08:36:18.469Z,58.40
2022-09-11T08:38:47.245Z,58.70
2022-09-11T08:41:28.681Z,50.10
2022-09-11T08:43:59.867Z,53.40
2022-09-11T08:46:38.045Z,51.60
2022-09-11T08:49:12.279Z,44.90
2022-09-11T08:51:40.734Z,33.90
2022-09-11T08:54:12.621Z,33.30
2022-09-11T08:56:44.036Z,29.40
2022-09-11T08:59:24.213Z,26.20
2022-09-11T09:02:04.615Z,27.10
2022-09-11T09:04:47.801Z,23.20
2022-09-11T09:07:27.722Z,18.30
2022-09-11T09:10:04.263Z,15.90
2022-09-11T09:12:41.547Z,12.50
2022-09-11T09:15:18.753Z,11.40
2022-09-11T09:17:51.105Z,11.40
2022-09-11T09:20:23.108Z,25.30
2022-09-11T09:22:55.620Z,26.70
2022-09-11T09:25:25.081Z,20.70
2022-09-11T09:27:56.535Z,18.20
2022-09-11T09:30:27.372Z,19.30
2022-09-11T09:33:02.005Z,21.60
2022-09-11T09:35:39.558Z,19.30
2022-09-11T09:38:13.844Z,25.70
2022-09-11T09:40:49.246Z,27.70
2022-09-11T09:43:30.204Z,34.50
2022-09-11T09:46:09.068Z,29.30
2022-09-11T09:48:40.586Z,35.50
2022-09-11T09:51:13.792Z,36.90
2022-09-11T09:53:46.540Z,33.90
2022-09-11T09:56:18.180Z,40.00
2022-09-11T09:58:55.540Z,35.50
2022-09-11T10:01:46.912Z,23.50
2022-09-11T10:04:18.453Z,24.30
2022-09-11T10:06:48.771Z,11.60
2022-09-11T10:09:22.167Z,11.50
2022-09-11T10:12:01.768Z,13.80
2022-09-11T10:17:24.237Z,9.40
2022-09-11T10:19:55.634Z,13.30
2022-09-11T10:22:27.221Z,21.60
2022-09-11T10:25:03.652Z,20.90
2022-09-11T10:27:35.946Z,13.00
2022-09-11T10:30:06.244Z,1.50
2022-09-11T10:32:38.592Z,5.70
2022-09-11T10:35:10.694Z,1.00
2022-09-11T10:37:39.129Z,1.00
2022-09-11T10:40:17.875Z,1.00
2022-09-11T10:42:46.375Z,1.00
2022-09-11T10:45:18.267Z,1.00
2022-09-11T10:47:46.762Z,1.00
2022-09-11T10:50:24.833Z,1.00
2022-09-11T10:53:04.332Z,1.00
2022-09-11T10:55:36.245Z,1.00
2022-09-11T10:58:09.344Z,1.00
2022-09-11T11:00:38.741Z,1.00
2022-09-11T11:03:07.876Z,1.00
2022-09-11T11:05:47.883Z,1.00
2022-09-11T11:08:46.197Z,1.00
2022-09-11T11:11:25.837Z,1.00
2022-09-11T11:14:17.871Z,1.00
2022-09-11T11:16:57.689Z,1.00
2022-09-11T11:19:41.115Z,1.00
2022-09-11T11:22:21.144Z,1.00
2022-09-11T11:25:02.014Z,1.00
2022-09-11T11:27:45.132Z,1.00
2022-09-11T11:30:17.723Z,1.00
2022-09-11T11:33:06.218Z,1.00
2022-09-11T11:35:41.958Z,1.00
2022-09-11T11:38:14.898Z,1.00
2022-09-11T11:40:46.370Z,1.00
2022-09-11T11:43:17.433Z,1.00
2022-09-11T11:45:50.077Z,1.00
2022-09-11T11:48:29.314Z,1.00
2022-09-11T11:51:00.026Z,1.00
2022-09-11T11:53:35.497Z,1.00
2022-09-11T11:56:14.208Z,1.00
2022-09-11T11:58:51.148Z,1.00
2022-09-11T12:01:25.181Z,1.00
2022-09-11T12:04:02.729Z,1.00
2022-09-11T12:06:31.292Z,1.00
2022-09-11T12:08:59.371Z,1.00
2022-09-11T12:11:31.596Z,1.00
2022-09-11T12:14:00.280Z,1.00
2022-09-11T12:16:32.115Z,1.00
2022-09-11T12:19:07.631Z,1.00
2022-09-11T12:21:57.569Z,1.00
2022-09-11T12:24:54.903Z,1.00
2022-09-11T12:27:52.962Z,1.00
2022-09-11T12:30:30.769Z,1.00
2022-09-11T12:33:01.099Z,1.00
2022-09-11T12:35:46.922Z,1.00
2022-09-11T12:38:23.918Z,1.00
2022-09-11T12:40:56.214Z,1.00
2022-09-11T12:43:46.596Z,1.00
2022-09-11T12:46:53.493Z,1.00
2022-09-11T12:49:23.659Z,1.00
2022-09-11T12:51:55.289Z,1.00
2022-09-11T12:54:27.327Z,1.00
2022-09-11T12:57:02.729Z,1.00
2022-09-11T12:59:34.449Z,1.00
2022-09-11T13:02:05.647Z,1.00
2022-09-11T13:04:34.862Z,1.00
2022-09-11T13:07:05.835Z,1.00
2022-09-11T13:09:37.661Z,1.00
2022-09-11T13:12:42.313Z,1.00
2022-09-11T13:15:36.806Z,1.00
2022-09-11T13:18:29.756Z,1.00
2022-09-11T13:21:00.611Z,1.00
2022-09-11T13:23:30.378Z,1.00
2022-09-11T13:25:59.055Z,1.00
2022-09-11T13:28:31.639Z,1.00
2022-09-11T13:31:03.231Z,1.00
2022-09-11T13:33:32.560Z,1.00
2022-09-11T13:36:03.661Z,1.00
2022-09-11T13:38:34.885Z,1.00
2022-09-11T13:41:06.231Z,1.00
2022-09-11T13:43:37.873Z,1.00
2022-09-11T13:46:23.669Z,1.00
2022-09-11T13:48:54.154Z,1.00
2022-09-11T13:51:24.882Z,1.00
2022-09-11T13:54:05.895Z,1.00
2022-09-11T13:56:41.476Z,1.00
2022-09-11T13:59:47.036Z,1.00
2022-09-11T14:02:40.595Z,1.00
2022-09-11T14:05:15.718Z,1.00
2022-09-11T14:07:56.528Z,1.00
2022-09-11T14:10:29.320Z,1.00
2022-09-11T14:13:10.581Z,1.00
2022-09-11T14:15:42.322Z,1.00
2022-09-11T14:18:21.556Z,1.00
2022-09-11T14:20:49.656Z,1.00
2022-09-11T14:23:24.370Z,1.00
2022-09-11T14:26:16.277Z,1.00
2022-09-11T14:28:50.833Z,1.00
2022-09-11T14:31:30.626Z,1.00
2022-09-11T14:34:20.380Z,1.00
2022-09-11T14:36:52.751Z,1.00
2022-09-11T14:39:27.408Z,1.00
2022-09-11T14:41:58.001Z,1.00
2022-09-11T14:44:27.215Z,1.00
2022-09-11T14:46:56.085Z,1.00
2022-09-11T14:49:24.354Z,1.00
2022-09-11T14:51:58.078Z,1.00
2022-09-11T14:54:27.627Z,1.00
2022-09-11T14:56:56.981Z,1.00
2022-09-11T14:59:24.997Z,1.00
2022-09-11T15:01:53.117Z,1.00
2022-09-11T15:04:23.170Z,1.00
2022-09-11T15:06:53.113Z,1.00
2022-09-11T15:09:21.066Z,1.00
2022-09-11T15:11:52.415Z,1.00
2022-09-11T15:14:44.600Z,1.00
2022-09-11T15:17:12.092Z,1.00
2022-09-11T15:19:40.839Z,1.00
2022-09-11T15:22:09.545Z,1.00
2022-09-11T15:24:37.505Z,1.00
2022-09-11T15:27:05.719Z,1.00
2022-09-11T15:29:36.028Z,1.00
2022-09-11T15:32:04.586Z,1.00
2022-09-11T15:34:33.142Z,1.00
2022-09-11T15:37:01.362Z,1.00
2022-09-11T15:39:30.142Z,1.00
2022-09-11T15:41:58.106Z,1.00
2022-09-11T15:44:28.592Z,1.00
2022-09-11T15:46:59.407Z,1.00
2022-09-11T15:49:29.346Z,1.00
2022-09-11T15:51:57.946Z,1.00
2022-09-11T15:54:26.361Z,1.00
2022-09-11T15:56:54.848Z,1.00
2022-09-11T15:59:23.147Z,1.00
2022-09-11T16:01:51.201Z,1.80
2022-09-11T16:04:22.949Z,8.20
2022-09-11T16:06:52.871Z,13.20
2022-09-11T16:09:23.161Z,5.40
2022-09-11T16:11:51.790Z,7.80
2022-09-11T16:14:21.442Z,11.50
2022-09-11T16:16:49.760Z,8.80
2022-09-11T16:19:19.518Z,13.30
2022-09-11T16:21:49.344Z,16.00
2022-09-11T16:24:18.438Z,19.50
2022-09-11T16:26:46.922Z,17.80
2022-09-11T16:29:17.920Z,20.20
2022-09-11T16:31:45.923Z,23.70
2022-09-11T16:34:15.064Z,18.70
2022-09-11T16:36:43.067Z,16.70
2022-09-11T16:39:14.978Z,11.50
2022-09-11T16:41:43.490Z,16.80
2022-09-11T16:44:14.797Z,9.60
2022-09-11T16:46:43.237Z,16.60
2022-09-11T16:49:15.408Z,12.60
2022-09-11T16:51:44.432Z,15.10
2022-09-11T16:54:13.797Z,16.30
2022-09-11T16:56:45.901Z,16.50
2022-09-11T16:59:15.576Z,21.30
2022-09-11T17:01:43.614Z,21.50
2022-09-11T17:04:11.667Z,21.40
2022-09-11T17:06:39.647Z,26.80
2022-09-11T17:09:07.660Z,26.10
2022-09-11T17:11:37.558Z,33.80
2022-09-11T17:14:05.585Z,36.20
2022-09-11T17:16:35.620Z,35.60
2022-09-11T17:19:03.597Z,39.10
2022-09-11T17:21:35.794Z,43.10
2022-09-11T17:24:05.277Z,46.70
2022-09-11T17:26:33.525Z,46.30
2022-09-11T17:29:04.428Z,54.10
2022-09-11T17:31:32.780Z,52.90
2022-09-11T17:34:00.889Z,54.10
2022-09-11T17:36:29.126Z,51.80
2022-09-11T17:38:59.443Z,55.30
2022-09-11T17:41:27.756Z,58.00
2022-09-11T17:43:55.743Z,60.70
2022-09-11T17:46:25.421Z,61.60
2022-09-11T17:48:53.432Z,68.20
2022-09-11T17:51:24.157Z,68.80
2022-09-11T17:53:55.351Z,75.20
2022-09-11T17:56:25.778Z,73.30
2022-09-11T17:58:54.924Z,74.80
2022-09-11T18:01:28.828Z,73.80
2022-09-11T18:03:58.592Z,82.50
2022-09-11T18:06:29.551Z,80.60
2022-09-11T18:09:01.751Z,75.30
2022-09-11T18:11:30.383Z,73.30
2022-09-11T18:14:00.024Z,79.50
2022-09-11T18:16:29.477Z,77.00
2022-09-11T18:18:57.333Z,82.70
2022-09-11T18:21:25.978Z,90.00
2022-09-11T18:23:54.678Z,88.00
2022-09-11T18:26:25.687Z,89.80
2022-09-11T18:29:00.095Z,89.00
2022-09-11T18:31:31.281Z,90.50
2022-09-11T18:34:01.089Z,91.70
2022-09-11T18:36:30.549Z,91.60
2022-09-11T18:39:00.992Z,92.50
2022-09-11T18:41:30.124Z,96.00
2022-09-11T18:44:00.087Z,93.70
2022-09-11T18:46:31.695Z,93.20
2022-09-11T18:49:00.240Z,92.60
2022-09-11T18:51:28.580Z,93.10
2022-09-11T18:53:56.838Z,91.00
2022-09-11T18:56:27.147Z,92.10
2022-09-11T18:58:56.015Z,90.20
2022-09-11T19:01:26.183Z,92.60
2022-09-11T19:03:55.572Z,94.40
2022-09-11T19:06:25.698Z,91.60
2022-09-11T19:08:55.472Z,90.90
2022-09-11T19:11:25.130Z,90.30
2022-09-11T19:13:54.692Z,86.40
2022-09-11T19:16:23.035Z,87.20
2022-09-11T19:18:51.336Z,86.90
2022-09-11T19:21:22.388Z,85.00
2022-09-11T19:23:51.871Z,84.70
2022-09-11T19:26:21.982Z,88.70
2022-09-11T19:28:51.494Z,87.80
2022-09-11T19:31:21.502Z,83.80
2022-09-11T19:33:49.609Z,88.50
2022-09-11T19:36:20.600Z,82.30
2022-09-11T19:38:51.486Z,83.60
2022-09-11T19:41:21.450Z,90.10
2022-09-11T19:43:50.664Z,90.50
2022-09-11T19:46:21.463Z,86.70
2022-09-11T19:48:49.772Z,90.30
2022-09-11T19:51:21.209Z,90.30
2022-09-11T19:53:50.078Z,87.10
2022-09-11T19:56:18.314Z,90.10
2022-09-11T19:58:46.590Z,89.70
2022-09-11T20:01:16.711Z,90.10
2022-09-11T20:03:46.240Z,93.90
2022-09-11T20:06:15.298Z,93.50
2022-09-11T20:08:46.429Z,96.20
2022-09-11T20:11:16.153Z,95.40
2022-09-11T20:13:44.186Z,94.70
2022-09-11T20:16:14.952Z,94.70
2022-09-11T20:18:43.519Z,94.90
2022-09-11T20:21:13.148Z,95.10
2022-09-11T20:23:41.237Z,96.90
2022-09-11T20:26:16.938Z,95.80
2022-09-11T20:28:45.626Z,94.80
2022-09-11T20:31:14.934Z,96.00
2022-09-11T20:33:43.206Z,98.00
2022-09-11T20:36:11.541Z,99.80
2022-09-11T20:38:39.538Z,99.90
2022-09-11T20:41:08.372Z,99.90
2022-09-11T20:43:37.749Z,99.90
2022-09-11T20:46:06.063Z,99.90
2022-09-11T20:48:34.368Z,99.90
2022-09-11T20:51:04.157Z,99.90
2022-09-11T20:53:32.176Z,99.90
2022-09-11T20:56:04.665Z,99.90
2022-09-11T20:58:32.697Z,99.90
2022-09-11T21:01:02.376Z,99.90
2022-09-11T21:03:31.183Z,99.90
2022-09-11T21:06:06.087Z,99.90
2022-09-11T21:08:34.153Z,99.50
2022-09-11T21:11:03.299Z,98.60
2022-09-11T21:13:31.353Z,97.80
2022-09-11T21:15:59.714Z,97.30
2022-09-11T21:18:29.053Z,97.30
2022-09-11T21:20:57.329Z,97.50
2022-09-11T21:23:25.712Z,99.10
2022-09-11T21:25:53.716Z,99.90
2022-09-11T21:28:21.960Z,99.90
2022-09-11T21:30:50.049Z,99.90
2022-09-11T21:33:18.059Z,99.90
2022-09-11T21:35:52.808Z,99.90
2022-09-11T21:38:21.885Z,99.90
2022-09-11T21:40:49.906Z,99.90
2022-09-11T21:43:18.232Z,99.90
2022-09-11T21:45:46.292Z,99.90
2022-09-11T21:48:14.422Z,99.90
2022-09-11T21:50:42.622Z,99.90
2022-09-11T21:53:12.723Z,99.90
2022-09-11T21:55:42.433Z,99.90
2022-09-11T21:58:14.087Z,99.90
2022-09-11T22:00:43.203Z,99.60
2022-09-11T22:03:12.561Z,99.40
2022-09-11T22:05:43.219Z,97.20
2022-09-11T22:08:13.830Z,96.40
2022-09-11T22:10:42.801Z,96.50
2022-09-11T22:13:11.192Z,96.00
2022-09-11T22:15:41.668Z,95.90
2022-09-11T22:18:09.700Z,97.30
2022-09-11T22:20:38.842Z,97.20
2022-09-11T22:23:07.569Z,96.90
2022-09-11T22:25:37.580Z,97.50
2022-09-11T22:28:05.621Z,98.40
2022-09-11T22:30:33.958Z,98.00
2022-09-11T22:33:02.256Z,98.30
2022-09-11T22:35:30.200Z,98.90
2022-09-11T22:37:58.149Z,99.40
2022-09-11T22:40:26.120Z,99.90
2022-09-11T22:42:55.608Z,99.90
2022-09-11T22:45:23.409Z,99.90
2022-09-11T22:47:51.345Z,99.90
2022-09-11T22:50:19.610Z,99.90
2022-09-11T22:52:48.384Z,99.90
2022-09-11T22:55:16.348Z,99.90
2022-09-11T22:57:44.313Z,99.90
2022-09-11T23:00:15.532Z,99.90
2022-09-11T23:02:44.121Z,99.90
2022-09-11T23:05:29.441Z,98.70
2022-09-11T23:07:57.419Z,99.80
2022-09-11T23:10:25.621Z,99.40
2022-09-11T23:12:54.235Z,99.10
2022-09-11T23:15:23.716Z,99.90
2022-09-11T23:17:51.665Z,99.90
2022-09-11T23:20:19.799Z,99.00
2022-09-11T23:22:47.784Z,99.90
2022-09-11T23:25:15.912Z,99.90
2022-09-11T23:27:45.304Z,99.90
2022-09-11T23:30:13.538Z,99.90
2022-09-11T23:32:42.884Z,99.90
2022-09-11T23:35:11.029Z,99.90
2022-09-11T23:37:42.361Z,99.90
2022-09-11T23:40:13.337Z,99.90
2022-09-11T23:42:41.441Z,99.90
2022-09-11T23:45:12.610Z,99.90
2022-09-11T23:47:42.125Z,99.90
2022-09-11T23:50:10.677Z,99.90
2022-09-11T23:52:39.533Z,99.90
2022-09-11T23:55:08.310Z,99.90
2022-09-11T23:57:36.347Z,99.90
